Time;durP1;ratioP1;P1;durP2;ratioP2;P2;SDS_P1;SDS_P2;PMS_P1;PMS_P2;Temp;Humidity;BMP_temperature;BMP_pressure;BME280_temperature;BME280_humidity;BME280_pressure;Samples;Min_cycle;Max_cycle;Signal;HPM_P1;HPM_P2
2021/10/17 00:01:14;;;;;;;25.00;16.60;;;;;;;7.55;100.00;97071.50;5064306;28;20191;-72
2021/10/17 00:03:40;;;;;;;24.40;17.43;;;;;;;7.38;100.00;97067.69;5065345;28;20197;-71
2021/10/17 00:06:05;;;;;;;24.43;17.57;;;;;;;7.21;100.00;97074.25;5049651;28;20277;-72
2021/10/17 00:08:31;;;;;;;25.67;17.03;;;;;;;7.32;100.00;97073.69;5059680;28;20231;-72
2021/10/17 00:10:57;;;;;;;23.67;17.67;;;;;;;7.41;100.00;97078.50;5075694;28;20235;-71
2021/10/17 00:13:22;;;;;;;25.03;17.93;;;;;;;7.50;100.00;97079.13;5048191;28;20265;-71
2021/10/17 00:15:47;;;;;;;28.53;16.63;;;;;;;7.84;100.00;97073.72;5065686;28;20212;-71
2021/10/17 00:18:14;;;;;;;25.13;17.83;;;;;;;7.48;100.00;97074.09;5059271;28;20244;-71
2021/10/17 00:20:40;;;;;;;24.33;17.03;;;;;;;7.52;100.00;97080.50;5064106;28;20201;-71
2021/10/17 00:23:05;;;;;;;26.13;17.63;;;;;;;7.46;100.00;97076.13;5058610;28;20194;-72
2021/10/17 00:25:31;;;;;;;26.23;16.57;;;;;;;7.53;100.00;97079.50;5050703;28;20189;-71
2021/10/17 00:27:56;;;;;;;24.03;16.67;;;;;;;7.48;100.00;97076.72;5061785;28;20272;-72
2021/10/17 00:30:22;;;;;;;25.70;17.53;;;;;;;7.48;100.00;97073.28;5075465;28;20189;-72
2021/10/17 00:32:48;;;;;;;22.27;16.17;;;;;;;7.47;100.00;97074.28;5045769;28;20186;-72
2021/10/17 00:35:14;;;;;;;25.67;16.90;;;;;;;7.40;100.00;97069.09;5066190;28;20540;-72
2021/10/17 00:37:41;;;;;;;24.70;16.93;;;;;;;7.49;100.00;97070.50;5035584;28;20193;-72
2021/10/17 00:40:09;;;;;;;26.53;17.30;;;;;;;7.53;100.00;97071.69;5060521;28;20247;-72
2021/10/17 00:42:36;;;;;;;24.60;18.27;;;;;;;7.49;100.00;97069.69;5049504;28;20190;-72
2021/10/17 00:45:07;;;;;;;30.60;20.67;;;;;;;7.52;100.00;97067.47;5066642;28;20177;-72
2021/10/17 00:47:33;;;;;;;32.20;23.07;;;;;;;7.44;100.00;97062.47;5057505;28;20253;-72
2021/10/17 00:49:58;;;;;;;31.60;21.83;;;;;;;7.46;100.00;97064.88;5057986;28;20194;-73
2021/10/17 00:52:24;;;;;;;28.93;19.80;;;;;;;7.50;100.00;97061.66;5070061;28;20635;-72
2021/10/17 00:54:49;;;;;;;26.97;18.57;;;;;;;7.59;100.00;97062.25;5064347;28;20192;-73
2021/10/17 00:57:16;;;;;;;26.60;17.97;;;;;;;7.59;100.00;97058.84;5063624;28;20319;-72
2021/10/17 00:59:44;;;;;;;25.37;17.57;;;;;;;7.53;100.00;97063.06;5048664;28;20201;-73
2021/10/17 01:02:09;;;;;;;28.70;18.90;;;;;;;7.51;100.00;97058.06;5059090;28;20186;-73
2021/10/17 01:04:39;;;;;;;24.40;17.30;;;;;;;7.47;100.00;97063.84;5066755;28;20191;-73
2021/10/17 01:07:05;;;;;;;25.70;15.97;;;;;;;7.19;100.00;97058.81;5074391;28;20315;-73
2021/10/17 01:09:31;;;;;;;25.23;16.97;;;;;;;7.36;100.00;97062.66;5068191;28;20185;-73
2021/10/17 01:11:56;;;;;;;25.40;17.00;;;;;;;7.27;100.00;97058.63;5058137;28;20563;-72
2021/10/17 01:14:23;;;;;;;24.30;15.37;;;;;;;7.29;100.00;97058.44;5068983;28;20195;-72
2021/10/17 01:16:50;;;;;;;23.27;15.93;;;;;;;7.27;100.00;97050.81;5064162;28;20189;-72
2021/10/17 01:19:17;;;;;;;22.83;16.17;;;;;;;7.24;100.00;97046.03;5062780;28;20233;-72
2021/10/17 01:21:43;;;;;;;23.20;15.27;;;;;;;7.17;100.00;97044.38;5050756;28;20233;-72
2021/10/17 01:24:09;;;;;;;22.53;15.47;;;;;;;7.09;100.00;97038.34;5059001;28;20217;-72
2021/10/17 01:26:36;;;;;;;21.40;14.40;;;;;;;7.25;100.00;97038.97;5066980;28;20197;-72
2021/10/17 01:29:02;;;;;;;18.80;14.53;;;;;;;7.39;100.00;97032.78;5066755;28;20196;-72
2021/10/17 01:31:39;;;;;;;20.13;14.37;;;;;;;7.36;100.00;97035.78;5062265;28;20186;-72
2021/10/17 01:34:06;;;;;;;20.87;14.07;;;;;;;7.36;99.45;97036.56;5062977;28;20198;-73
2021/10/17 01:36:34;;;;;;;21.00;13.83;;;;;;;7.20;99.89;97028.34;5048757;28;20592;-73
2021/10/17 01:38:59;;;;;;;19.13;13.37;;;;;;;7.01;100.00;97035.94;5057630;28;20209;-72
2021/10/17 01:41:25;;;;;;;20.53;14.20;;;;;;;7.13;100.00;97033.56;5067329;28;20260;-72
2021/10/17 01:43:51;;;;;;;18.73;13.27;;;;;;;7.18;99.47;97028.56;5063256;28;20185;-72
2021/10/17 01:46:16;;;;;;;20.83;14.03;;;;;;;7.06;99.74;97030.94;5072571;28;20630;-72
2021/10/17 01:48:42;;;;;;;17.40;12.43;;;;;;;7.09;99.81;97030.53;5065420;28;20213;-72
2021/10/17 01:51:07;;;;;;;19.73;14.17;;;;;;;7.12;99.23;97034.56;5063255;28;20186;-72
2021/10/17 01:53:32;;;;;;;18.17;13.53;;;;;;;6.97;100.00;97033.91;5069981;28;20689;-72
2021/10/17 01:55:59;;;;;;;23.27;13.63;;;;;;;6.96;100.00;97035.75;5062368;28;20178;-72
2021/10/17 01:58:25;;;;;;;17.50;13.60;;;;;;;7.05;100.00;97031.94;5062342;28;20239;-72
2021/10/17 02:00:53;;;;;;;21.30;14.73;;;;;;;7.16;100.00;97017.53;5063401;28;20222;-72
2021/10/17 02:03:19;;;;;;;18.50;14.13;;;;;;;7.06;100.00;97019.72;5065591;28;20185;-72
2021/10/17 02:05:44;;;;;;;18.37;13.77;;;;;;;7.09;100.00;97027.13;5039138;28;20597;-72
2021/10/17 02:08:09;;;;;;;21.70;14.30;;;;;;;7.15;100.00;97025.53;5068834;28;20185;-72
2021/10/17 02:10:35;;;;;;;19.40;14.50;;;;;;;7.13;100.00;97022.34;5046848;28;20189;-72
2021/10/17 02:13:01;;;;;;;20.43;13.97;;;;;;;7.12;100.00;97021.53;5065812;28;20512;-72
2021/10/17 02:15:26;;;;;;;21.80;15.63;;;;;;;7.20;100.00;97029.16;5048231;28;20178;-72
2021/10/17 02:17:51;;;;;;;21.23;14.40;;;;;;;7.23;100.00;97025.34;5070200;28;20192;-73
2021/10/17 02:20:17;;;;;;;21.60;14.97;;;;;;;7.34;100.00;97025.56;5062090;28;20213;-72
2021/10/17 02:22:42;;;;;;;25.30;15.60;;;;;;;7.32;100.00;97024.16;5061514;28;20185;-73
2021/10/17 02:25:09;;;;;;;22.77;15.77;;;;;;;7.33;100.00;97015.31;5046731;28;20184;-72
2021/10/17 02:27:35;;;;;;;21.97;15.43;;;;;;;7.46;100.00;97016.16;5059211;28;20708;-72
2021/10/17 02:30:00;;;;;;;18.33;14.07;;;;;;;7.62;100.00;97017.53;5058151;28;20190;-72
2021/10/17 02:32:26;;;;;;;18.83;14.43;;;;;;;7.56;100.00;97018.34;5059932;28;20205;-72
2021/10/17 02:34:51;;;;;;;19.70;14.73;;;;;;;7.50;100.00;97013.94;5062831;28;20192;-72
2021/10/17 02:37:16;;;;;;;22.37;14.60;;;;;;;7.59;100.00;97015.31;5042528;28;20192;-74
2021/10/17 02:39:42;;;;;;;18.67;14.00;;;;;;;7.67;99.35;97017.72;5047288;28;20292;-74
2021/10/17 02:42:07;;;;;;;19.60;14.50;;;;;;;7.40;100.00;97009.13;5038572;28;20635;-74
2021/10/17 02:44:32;;;;;;;19.10;14.63;;;;;;;7.56;99.37;97009.72;5062875;28;20185;-73
2021/10/17 02:46:58;;;;;;;20.57;14.60;;;;;;;7.55;99.52;97008.09;5061538;28;20265;-73
2021/10/17 02:49:25;;;;;;;19.57;14.17;;;;;;;7.51;100.00;97012.94;5061585;28;20197;-73
2021/10/17 02:51:50;;;;;;;18.93;14.30;;;;;;;7.83;98.27;97009.47;5069507;28;20189;-74
2021/10/17 02:54:17;;;;;;;20.27;14.23;;;;;;;7.67;99.13;97017.72;5066990;28;20653;-74
2021/10/17 02:56:43;;;;;;;19.77;14.30;;;;;;;7.74;98.92;97008.09;5059408;28;20190;-73
2021/10/17 02:59:08;;;;;;;19.33;14.80;;;;;;;7.59;99.68;97017.91;5060970;28;20232;-73
2021/10/17 03:01:34;;;;;;;21.03;14.90;;;;;;;7.69;100.00;97010.47;5064579;28;20646;-73
2021/10/17 03:03:59;;;;;;;20.70;14.87;;;;;;;7.75;99.25;97014.09;5056662;28;20190;-73
2021/10/17 03:06:27;;;;;;;17.73;13.87;;;;;;;7.68;99.50;97019.34;5066271;28;20166;-73
2021/10/17 03:08:53;;;;;;;21.40;14.60;;;;;;;7.74;99.90;97017.72;5069548;28;20201;-74
2021/10/17 03:11:19;;;;;;;16.90;12.90;;;;;;;7.80;99.89;97015.09;5063227;28;20648;-72
2021/10/17 03:13:44;;;;;;;21.83;14.47;;;;;;;7.81;99.66;97010.66;5063670;28;20197;-73
2021/10/17 03:16:09;;;;;;;20.33;14.03;;;;;;;7.87;99.44;97012.47;5055254;28;20197;-73
2021/10/17 03:18:35;;;;;;;17.67;12.57;;;;;;;8.07;98.61;97013.25;5049564;28;20182;-73
2021/10/17 03:21:01;;;;;;;20.33;14.47;;;;;;;8.03;97.99;97012.03;5042704;28;20193;-74
2021/10/17 03:23:26;;;;;;;18.93;13.93;;;;;;;8.07;97.82;97010.63;5058641;28;20332;-73
2021/10/17 03:25:51;;;;;;;18.10;13.43;;;;;;;8.02;98.14;97007.03;5063219;28;20652;-74
2021/10/17 03:28:17;;;;;;;17.90;13.30;;;;;;;8.14;97.50;97000.97;5061970;28;20186;-74
2021/10/17 03:30:42;;;;;;;16.93;13.10;;;;;;;8.13;97.63;96996.75;5046432;28;20178;-72
2021/10/17 03:33:08;;;;;;;18.87;12.57;;;;;;;8.18;97.27;97002.16;5041790;28;20272;-72
2021/10/17 03:35:33;;;;;;;19.30;13.50;;;;;;;8.23;96.98;97004.16;5052936;28;20193;-71
2021/10/17 03:37:58;;;;;;;18.63;13.57;;;;;;;8.31;96.74;97001.34;5060556;28;20312;-71
2021/10/17 03:40:24;;;;;;;18.07;14.10;;;;;;;8.25;96.67;97004.75;5045155;28;20674;-72
2021/10/17 03:42:49;;;;;;;17.73;13.87;;;;;;;8.19;97.44;96998.53;5057975;28;20592;-73
2021/10/17 03:45:14;;;;;;;18.87;12.80;;;;;;;8.22;95.98;97005.16;5062201;28;20185;-73
2021/10/17 03:47:40;;;;;;;19.53;12.87;;;;;;;8.06;96.92;97001.19;5061969;28;20188;-73
2021/10/17 03:50:05;;;;;;;18.13;12.73;;;;;;;8.03;96.41;97001.59;5063620;28;20270;-72
2021/10/17 03:52:31;;;;;;;17.33;11.90;;;;;;;7.96;96.48;97000.81;5063028;28;20212;-72
2021/10/17 03:54:57;;;;;;;16.00;12.23;;;;;;;7.75;97.58;97001.03;5061567;28;20216;-73
2021/10/17 03:57:23;;;;;;;15.53;12.30;;;;;;;7.67;97.44;97003.88;5063037;28;20182;-72
2021/10/17 03:59:48;;;;;;;14.80;11.03;;;;;;;7.77;97.50;97001.66;5064199;28;20218;-72
2021/10/17 04:02:13;;;;;;;18.13;13.30;;;;;;;7.82;97.69;97000.03;5063274;28;20173;-72
2021/10/17 04:04:39;;;;;;;15.30;11.80;;;;;;;7.84;97.04;97003.25;5039580;28;20213;-72
2021/10/17 04:07:05;;;;;;;16.33;12.87;;;;;;;8.00;96.27;97002.00;5055917;28;20178;-71
2021/10/17 04:09:30;;;;;;;16.57;12.97;;;;;;;7.82;96.79;97007.06;5064559;28;20697;-71
2021/10/17 04:11:55;;;;;;;15.23;11.43;;;;;;;7.88;96.10;97001.84;5062234;28;20229;-71
2021/10/17 04:14:21;;;;;;;16.23;12.07;;;;;;;8.00;95.79;97001.22;5040104;28;20234;-71
2021/10/17 04:16:46;;;;;;;15.53;11.77;;;;;;;7.83;96.14;97003.44;5066934;28;20185;-71
2021/10/17 04:19:12;;;;;;;16.83;12.70;;;;;;;7.75;97.07;96994.03;5064798;28;20189;-71
2021/10/17 04:21:37;;;;;;;16.27;11.67;;;;;;;7.74;97.42;96999.47;5058893;28;20182;-71
2021/10/17 04:24:02;;;;;;;17.97;12.83;;;;;;;7.81;96.96;96997.63;5055936;28;20171;-72
2021/10/17 04:26:28;;;;;;;15.37;12.23;;;;;;;7.79;97.25;96997.03;5055810;28;20222;-71
2021/10/17 04:28:53;;;;;;;16.57;12.47;;;;;;;7.78;96.99;96995.44;5057395;28;20213;-71
2021/10/17 04:31:19;;;;;;;15.47;11.90;;;;;;;7.69;97.50;96992.22;5059632;28;20192;-71
2021/10/17 04:33:44;;;;;;;17.30;12.80;;;;;;;7.55;98.38;96998.47;5064294;28;20185;-71
2021/10/17 04:36:10;;;;;;;17.80;13.20;;;;;;;7.48;99.05;96995.06;5067961;28;20186;-71
2021/10/17 04:38:35;;;;;;;17.00;12.87;;;;;;;7.56;98.46;96987.03;5041783;28;20198;-71
2021/10/17 04:41:01;;;;;;;20.93;12.80;;;;;;;7.53;98.38;97000.47;5071447;28;20190;-72
2021/10/17 04:43:27;;;;;;;18.53;12.57;;;;;;;7.62;97.82;96991.44;5063968;28;20192;-71
2021/10/17 04:45:52;;;;;;;18.57;12.87;;;;;;;7.53;97.64;96990.84;5065630;28;20186;-71
2021/10/17 04:48:18;;;;;;;16.50;12.23;;;;;;;7.41;98.51;96991.69;5046538;28;20538;-71
2021/10/17 04:50:43;;;;;;;19.60;12.30;;;;;;;7.43;98.54;96992.25;5057724;28;20261;-72
2021/10/17 04:53:09;;;;;;;17.93;12.80;;;;;;;7.41;98.62;96986.47;5046352;28;20198;-72
2021/10/17 04:55:34;;;;;;;16.63;11.90;;;;;;;7.43;98.69;96987.03;5038639;28;20185;-71
2021/10/17 04:58:02;;;;;;;17.70;13.17;;;;;;;7.50;98.31;96985.25;5059271;28;20622;-71
2021/10/17 05:00:28;;;;;;;15.13;11.97;;;;;;;7.57;97.55;96991.25;5050583;28;20198;-71
2021/10/17 05:02:53;;;;;;;18.40;12.67;;;;;;;7.45;98.37;96992.88;5062121;28;20197;-71
2021/10/17 05:05:19;;;;;;;17.77;12.00;;;;;;;7.55;97.78;96989.84;5062330;28;20175;-71
2021/10/17 05:07:44;;;;;;;21.00;13.27;;;;;;;7.52;97.91;96989.22;5063285;28;20182;-71
2021/10/17 05:10:09;;;;;;;21.73;12.43;;;;;;;7.65;96.93;96987.63;5062416;28;20182;-72
2021/10/17 05:12:35;;;;;;;18.47;12.50;;;;;;;7.64;96.74;96988.63;5049684;28;20226;-72
2021/10/17 05:15:00;;;;;;;15.40;12.10;;;;;;;7.62;96.77;96988.03;5070606;28;20188;-73
2021/10/17 05:17:26;;;;;;;14.93;11.77;;;;;;;7.61;97.05;96984.63;5039409;28;20213;-71
2021/10/17 05:19:51;;;;;;;19.10;12.10;;;;;;;7.59;96.96;96986.63;5056636;28;20720;-71
2021/10/17 05:22:16;;;;;;;16.77;12.10;;;;;;;7.70;95.86;96987.81;5068562;28;20182;-72
2021/10/17 05:24:42;;;;;;;16.37;12.23;;;;;;;7.62;96.19;96991.44;5056111;28;20197;-71
2021/10/17 05:27:07;;;;;;;16.53;11.80;;;;;;;7.52;96.33;96988.47;5066998;28;20630;-71
2021/10/17 05:29:32;;;;;;;15.23;11.57;;;;;;;7.55;96.25;96990.66;5041473;28;20198;-71
2021/10/17 05:31:58;;;;;;;16.23;11.93;;;;;;;7.57;95.98;96985.25;5067079;28;20197;-71
2021/10/17 05:34:23;;;;;;;15.20;11.57;;;;;;;7.48;95.96;96989.84;5063408;28;20186;-71
2021/10/17 05:36:49;;;;;;;14.70;11.83;;;;;;;7.50;96.55;96982.63;5063971;28;20214;-72
2021/10/17 05:39:14;;;;;;;18.00;12.93;;;;;;;7.65;95.62;96985.00;5065826;28;20209;-72
2021/10/17 05:41:39;;;;;;;16.63;11.73;;;;;;;7.63;95.42;96979.22;5065773;28;20204;-71
2021/10/17 05:44:05;;;;;;;17.13;12.07;;;;;;;7.54;96.06;96983.81;5073844;28;20193;-71
2021/10/17 05:46:30;;;;;;;19.23;13.20;;;;;;;7.46;96.10;96984.84;5040486;28;20519;-71
2021/10/17 05:48:55;;;;;;;22.03;12.43;;;;;;;7.54;95.63;96986.44;5062401;28;20189;-71
2021/10/17 05:51:21;;;;;;;19.57;12.00;;;;;;;7.41;96.14;96984.63;5066831;28;20185;-72
2021/10/17 05:53:46;;;;;;;15.77;11.97;;;;;;;7.40;95.98;96984.84;5058144;28;20189;-71
2021/10/17 05:56:11;;;;;;;18.33;12.57;;;;;;;7.39;95.97;96994.47;5069672;28;20643;-71
2021/10/17 05:58:37;;;;;;;19.90;13.13;;;;;;;7.37;95.93;96993.06;5062108;28;20330;-71
2021/10/17 06:01:02;;;;;;;17.87;11.87;;;;;;;7.36;95.47;96994.84;5069017;28;20551;-71
2021/10/17 06:03:28;;;;;;;15.90;11.80;;;;;;;7.41;95.40;97000.28;5049619;28;20178;-71
2021/10/17 06:06:00;;;;;;;16.57;12.67;;;;;;;7.39;95.60;97004.09;5063963;28;20655;-71
2021/10/17 06:08:25;;;;;;;17.80;11.63;;;;;;;7.36;95.97;97007.09;5065595;28;20173;-71
2021/10/17 06:10:52;;;;;;;19.17;12.53;;;;;;;7.51;95.52;97011.13;5043924;28;20269;-70
2021/10/17 06:13:17;;;;;;;18.93;13.07;;;;;;;7.53;95.33;97016.13;5038822;28;20187;-70
2021/10/17 06:15:43;;;;;;;18.90;12.70;;;;;;;7.57;94.99;97016.53;5058696;28;20635;-71
2021/10/17 06:18:08;;;;;;;19.43;13.43;;;;;;;7.72;94.71;97025.75;5064253;28;20185;-71
2021/10/17 06:20:33;;;;;;;18.00;13.90;;;;;;;7.75;94.08;97025.34;5040183;28;20214;-70
2021/10/17 06:22:59;;;;;;;19.03;13.27;;;;;;;7.90;93.77;97027.75;5037713;28;20643;-73
2021/10/17 06:25:24;;;;;;;20.50;13.90;;;;;;;7.36;96.29;97033.97;5067928;28;20235;-70
2021/10/17 06:27:50;;;;;;;20.73;13.87;;;;;;;7.69;95.19;97031.34;5063294;28;20298;-71
2021/10/17 06:30:15;;;;;;;20.13;13.97;;;;;;;7.85;94.61;97040.59;5061556;28;20593;-72
2021/10/17 06:32:40;;;;;;;19.07;13.50;;;;;;;8.03;93.88;97045.16;5060819;28;20292;-72
2021/10/17 06:35:06;;;;;;;16.67;12.53;;;;;;;8.19;92.92;97045.53;5053849;28;20269;-71
2021/10/17 06:37:31;;;;;;;18.30;11.90;;;;;;;8.29;92.64;97047.72;5043540;28;20188;-72
2021/10/17 06:39:57;;;;;;;19.60;13.60;;;;;;;8.31;91.91;97053.56;5051418;28;20241;-71
2021/10/17 06:42:23;;;;;;;16.47;12.60;;;;;;;8.37;92.62;97052.75;5048195;28;20195;-72
2021/10/17 06:44:48;;;;;;;19.70;13.37;;;;;;;8.45;92.17;97049.09;5064639;28;20221;-72
2021/10/17 06:47:14;;;;;;;18.30;12.90;;;;;;;8.57;91.50;97050.06;5060327;28;20222;-70
2021/10/17 06:49:39;;;;;;;18.80;14.07;;;;;;;8.54;91.26;97053.88;5062003;28;20186;-71
2021/10/17 06:52:05;;;;;;;20.90;14.37;;;;;;;8.64;91.34;97054.25;5059979;28;20185;-70
2021/10/17 06:54:30;;;;;;;21.23;15.17;;;;;;;8.76;90.40;97047.38;5043204;28;20273;-70
2021/10/17 06:56:55;;;;;;;22.03;14.53;;;;;;;8.98;89.41;97055.69;5069672;28;20181;-70
2021/10/17 06:59:21;;;;;;;20.17;14.13;;;;;;;8.55;90.57;97060.72;5059350;28;20205;-71
2021/10/17 07:01:46;;;;;;;17.10;13.17;;;;;;;8.73;90.90;97060.88;5062401;28;20631;-70
2021/10/17 07:04:12;;;;;;;22.13;15.60;;;;;;;8.53;90.21;97065.34;5067646;28;20617;-72
2021/10/17 07:06:39;;;;;;;20.17;15.30;;;;;;;8.33;92.84;97069.84;5061468;28;20189;-69
2021/10/17 07:09:06;;;;;;;19.93;14.20;;;;;;;8.64;91.23;97067.31;5062659;28;20553;-71
2021/10/17 07:11:32;;;;;;;19.20;13.97;;;;;;;8.67;91.65;97072.13;5058892;28;20222;-69
2021/10/17 07:13:57;;;;;;;16.90;12.83;;;;;;;8.98;90.99;97068.78;5062265;28;20199;-69
2021/10/17 07:16:23;;;;;;;15.77;12.17;;;;;;;9.28;90.19;97070.81;5053687;28;20182;-68
2021/10/17 07:18:48;;;;;;;16.37;11.87;;;;;;;9.57;88.73;97065.00;5061608;28;20181;-69
2021/10/17 07:21:13;;;;;;;15.03;11.93;;;;;;;9.45;87.58;97069.28;5067468;28;20218;-69
2021/10/17 07:23:39;;;;;;;16.30;11.20;;;;;;;9.68;87.67;97069.53;5047585;28;20178;-70
2021/10/17 07:26:04;;;;;;;13.90;11.20;;;;;;;10.00;86.97;97070.25;5069129;28;20182;-68
2021/10/17 07:28:29;;;;;;;13.90;9.87;;;;;;;10.07;85.69;97076.25;5059163;28;20275;-69
2021/10/17 07:30:55;;;;;;;12.30;10.90;;;;;;;10.01;86.18;97082.34;5043039;28;20259;-70
2021/10/17 07:33:20;;;;;;;17.13;12.03;;;;;;;10.10;85.17;97075.00;5067182;28;20262;-69
2021/10/17 07:35:45;;;;;;;16.73;13.00;;;;;;;10.20;84.69;97076.13;5064544;28;20193;-69
2021/10/17 07:38:11;;;;;;;22.90;14.27;;;;;;;10.28;84.02;97081.09;5065768;28;20181;-69
2021/10/17 07:40:36;;;;;;;32.67;12.80;;;;;;;10.28;83.57;97081.09;5043313;28;20214;-69
2021/10/17 07:43:02;;;;;;;19.37;12.70;;;;;;;10.31;83.58;97080.66;5068737;28;20189;-70
2021/10/17 07:45:27;;;;;;;15.63;11.50;;;;;;;10.36;83.11;97080.03;5066219;28;20193;-69
2021/10/17 07:47:53;;;;;;;17.43;12.90;;;;;;;10.14;84.30;97076.97;5061438;28;20182;-70
2021/10/17 07:50:18;;;;;;;18.20;12.13;;;;;;;10.49;83.60;97084.28;5063381;28;20204;-68
2021/10/17 07:52:43;;;;;;;16.93;12.27;;;;;;;10.53;83.25;97090.72;5059952;28;20679;-69
2021/10/17 07:55:09;;;;;;;15.90;11.83;;;;;;;10.17;83.98;97083.63;5064657;28;20652;-69
2021/10/17 07:57:49;;;;;;;16.53;11.43;;;;;;;10.09;84.63;97089.09;5057639;28;20182;-69
2021/10/17 08:00:19;;;;;;;16.10;10.50;;;;;;;9.72;85.67;97093.44;5055359;28;20209;-69
2021/10/17 08:02:44;;;;;;;13.80;10.13;;;;;;;10.09;84.23;97102.19;5070818;28;20182;-70
2021/10/17 08:05:10;;;;;;;16.33;11.27;;;;;;;10.02;82.63;97089.19;5056841;28;20343;-68
2021/10/17 08:07:36;;;;;;;15.20;11.00;;;;;;;9.90;83.10;97096.94;5059396;28;20186;-70
2021/10/17 08:10:02;;;;;;;16.33;11.30;;;;;;;9.68;84.81;97105.38;5046477;28;20186;-69
2021/10/17 08:12:27;;;;;;;15.60;11.30;;;;;;;9.72;85.19;97111.78;5073139;28;20248;-69
2021/10/17 08:14:53;;;;;;;15.87;11.43;;;;;;;9.94;84.03;97110.38;5058357;28;20257;-68
2021/10/17 08:17:18;;;;;;;15.63;11.20;;;;;;;10.02;83.41;97115.38;5059501;28;20619;-69
2021/10/17 08:19:44;;;;;;;14.87;11.40;;;;;;;9.65;84.57;97111.81;5057947;28;20670;-69
2021/10/17 08:22:09;;;;;;;17.20;11.37;;;;;;;9.45;85.34;97116.38;5042497;28;20206;-69
2021/10/17 08:24:34;;;;;;;17.00;11.77;;;;;;;9.42;86.12;97109.75;5063397;28;20193;-69
2021/10/17 08:27:00;;;;;;;16.33;11.47;;;;;;;9.15;86.53;97116.94;5042534;28;20190;-69
2021/10/17 08:29:25;;;;;;;16.27;11.27;;;;;;;9.60;86.15;97111.66;5056121;28;20217;-68
2021/10/17 08:31:51;;;;;;;16.00;11.73;;;;;;;9.59;86.36;97115.28;5055957;28;20557;-69
2021/10/17 08:34:16;;;;;;;15.83;11.57;;;;;;;9.09;88.14;97115.16;5059213;28;20182;-68
2021/10/17 08:36:41;;;;;;;16.33;11.07;;;;;;;9.35;87.14;97116.84;5072054;28;20189;-69
2021/10/17 08:39:07;;;;;;;16.60;11.20;;;;;;;9.34;88.15;97111.84;5070129;28;20193;-71
2021/10/17 08:41:33;;;;;;;16.33;11.23;;;;;;;9.50;87.56;97114.75;5070194;28;20193;-69
2021/10/17 08:43:58;;;;;;;18.23;13.10;;;;;;;9.41;87.06;97113.41;5072094;28;20196;-70
2021/10/17 08:46:24;;;;;;;15.43;11.13;;;;;;;9.44;86.84;97106.94;5036990;28;20268;-70
2021/10/17 08:49:01;;;;;;;22.00;13.10;;;;;;;9.57;87.90;97114.69;5051868;28;20506;-69
2021/10/17 08:51:26;;;;;;;19.07;12.70;;;;;;;9.19;89.28;97112.91;5065666;28;20176;-70
2021/10/17 08:53:52;;;;;;;16.63;12.57;;;;;;;9.66;87.07;97110.00;5062032;28;20190;-71
2021/10/17 08:56:18;;;;;;;20.07;12.97;;;;;;;9.79;87.60;97115.94;5057438;28;20174;-70
2021/10/17 08:58:43;;;;;;;17.43;12.23;;;;;;;9.93;86.53;97114.00;5057437;28;20268;-69
2021/10/17 09:01:16;;;;;;;16.90;12.27;;;;;;;9.65;87.27;97119.66;5075011;28;20195;-69
2021/10/17 09:03:50;;;;;;;15.87;11.67;;;;;;;9.34;89.01;97123.09;5053632;28;20244;-69
2021/10/17 09:06:15;;;;;;;16.67;12.73;;;;;;;9.49;88.24;97112.34;5043551;28;20209;-70
2021/10/17 09:08:41;;;;;;;16.33;12.03;;;;;;;9.73;87.14;97123.84;5063787;28;20205;-70
2021/10/17 09:11:06;;;;;;;18.13;12.23;;;;;;;9.55;87.83;97114.09;5067237;28;20248;-69
2021/10/17 09:13:31;;;;;;;16.30;11.60;;;;;;;9.82;86.27;97110.28;5049811;28;20213;-70
2021/10/17 09:15:57;;;;;;;17.27;12.13;;;;;;;10.14;85.32;97108.38;5064283;28;20190;-70
2021/10/17 09:18:23;;;;;;;13.90;11.03;;;;;;;10.06;85.39;97118.34;5051092;28;20541;-70
2021/10/17 09:20:49;;;;;;;17.83;12.33;;;;;;;9.72;86.18;97109.16;5045629;28;20209;-70
2021/10/17 09:23:26;;;;;;;15.97;11.60;;;;;;;9.36;88.76;97118.44;5059459;28;20703;-70
2021/10/17 09:25:53;;;;;;;18.23;11.47;;;;;;;9.78;86.86;97113.53;5064706;28;20181;-71
2021/10/17 09:28:28;;;;;;;17.07;11.20;;;;;;;9.63;86.62;97111.25;5054755;28;20190;-70
2021/10/17 09:30:58;;;;;;;16.43;11.90;;;;;;;9.48;86.95;97108.91;5069057;28;20293;-70
2021/10/17 09:33:24;;;;;;;15.77;11.77;;;;;;;9.54;87.58;97109.88;5056471;28;20182;-71
2021/10/17 09:35:49;;;;;;;16.27;12.20;;;;;;;9.62;87.90;97106.22;5051900;28;20643;-70
2021/10/17 09:38:16;;;;;;;16.17;11.87;;;;;;;9.70;87.34;97098.88;5068965;28;20227;-71
2021/10/17 09:40:43;;;;;;;16.53;11.77;;;;;;;9.59;88.29;97096.97;5060236;28;20247;-71
2021/10/17 09:43:22;;;;;;;16.27;11.53;;;;;;;9.70;87.64;97095.47;5054400;28;20235;-70
2021/10/17 09:45:48;;;;;;;16.27;11.57;;;;;;;9.48;89.59;97102.88;5063544;28;20200;-70
2021/10/17 09:48:30;;;;;;;15.07;11.47;;;;;;;9.81;88.34;97092.97;5062437;28;20705;-70
2021/10/17 09:51:14;;;;;;;16.57;11.83;;;;;;;9.77;88.36;97096.22;5072612;28;20588;-70
2021/10/17 09:53:39;;;;;;;15.77;11.10;;;;;;;10.00;87.60;97093.81;5066403;28;20265;-70
2021/10/17 09:56:04;;;;;;;15.93;11.23;;;;;;;10.03;87.45;97088.94;5047634;28;20269;-72
2021/10/17 09:58:30;;;;;;;14.67;11.80;;;;;;;9.93;88.07;97098.31;5054635;28;20598;-70
2021/10/17 10:00:56;;;;;;;17.47;12.77;;;;;;;9.87;88.55;97092.13;5054780;28;20585;-69
2021/10/17 10:03:21;;;;;;;16.90;12.90;;;;;;;9.57;90.07;97086.72;5062820;28;20185;-71
2021/10/17 10:05:47;;;;;;;16.40;11.97;;;;;;;9.50;90.81;97095.63;5065249;28;20181;-70
2021/10/17 10:08:13;;;;;;;18.17;12.73;;;;;;;9.52;90.73;97088.38;5064354;28;20178;-71
2021/10/17 10:10:39;;;;;;;17.63;11.70;;;;;;;9.93;89.55;97082.59;5071360;28;20231;-70
2021/10/17 10:13:06;;;;;;;17.17;12.50;;;;;;;10.01;88.55;97079.72;5070742;28;20305;-72
2021/10/17 10:15:32;;;;;;;17.53;12.97;;;;;;;9.97;87.36;97081.16;5065751;28;20186;-72
2021/10/17 10:17:58;;;;;;;18.10;12.83;;;;;;;9.91;87.65;97077.59;5060981;28;20213;-71
2021/10/17 10:20:24;;;;;;;21.07;14.27;;;;;;;10.01;87.82;97083.13;5064837;28;20267;-70
2021/10/17 10:22:52;;;;;;;17.90;12.90;;;;;;;9.89;87.70;97074.38;5058590;28;20194;-70
2021/10/17 10:25:19;;;;;;;18.73;13.50;;;;;;;9.94;87.52;97082.38;5067156;28;20181;-70
2021/10/17 10:27:46;;;;;;;18.67;13.07;;;;;;;10.03;87.54;97086.31;5058659;28;20216;-70
2021/10/17 10:30:27;;;;;;;17.27;13.20;;;;;;;9.89;88.10;97090.09;5045502;28;20185;-71
2021/10/17 10:33:15;;;;;;;18.33;13.40;;;;;;;9.92;87.97;97094.06;5060285;28;20177;-70
2021/10/17 10:36:04;;;;;;;21.07;13.33;;;;;;;9.64;89.86;97091.13;5070006;28;20242;-70
2021/10/17 10:38:48;;;;;;;18.70;13.57;;;;;;;9.74;90.02;97091.44;5064047;28;20174;-70
2021/10/17 10:41:21;;;;;;;19.37;12.73;;;;;;;9.77;89.45;97086.56;5067610;28;20181;-70
2021/10/17 10:43:47;;;;;;;19.70;13.83;;;;;;;9.77;89.06;97085.75;5063834;28;20182;-71
2021/10/17 10:46:26;;;;;;;18.73;13.53;;;;;;;9.81;88.92;97081.69;5065209;28;20563;-72
2021/10/17 10:48:52;;;;;;;19.70;13.40;;;;;;;9.63;90.28;97079.03;5053899;28;20166;-71
2021/10/17 10:51:37;;;;;;;20.17;13.37;;;;;;;9.73;90.20;97087.22;5061608;28;20642;-73
2021/10/17 10:54:03;;;;;;;17.87;12.53;;;;;;;9.73;90.04;97081.97;5043317;28;20186;-70
2021/10/17 10:56:37;;;;;;;18.60;13.03;;;;;;;9.62;90.84;97093.13;5059694;28;20181;-71
2021/10/17 10:59:03;;;;;;;18.83;13.53;;;;;;;9.60;90.73;97088.91;5069684;28;20294;-70
2021/10/17 11:01:51;;;;;;;20.53;13.50;;;;;;;9.58;90.89;97087.53;5072613;28;20185;-71
2021/10/17 11:04:38;;;;;;;17.63;12.23;;;;;;;9.70;90.44;97077.94;5064070;28;20178;-71
2021/10/17 11:07:22;;;;;;;18.93;12.70;;;;;;;9.77;90.09;97086.56;5034929;28;20181;-70
2021/10/17 11:09:50;;;;;;;19.23;13.13;;;;;;;9.79;89.70;97087.16;5061040;28;20196;-70
2021/10/17 11:12:57;;;;;;;21.40;13.57;;;;;;;9.53;91.24;97089.94;5072764;28;20225;-71
2021/10/17 11:15:26;;;;;;;21.77;13.93;;;;;;;9.60;91.37;97085.47;5049491;28;20186;-70
2021/10/17 11:18:03;;;;;;;21.03;13.57;;;;;;;9.70;90.73;97092.84;5040208;28;20189;-70
2021/10/17 11:20:42;;;;;;;19.20;13.27;;;;;;;9.97;90.23;97084.56;5053523;28;20177;-71